createdAt,value
2023-02-08T00:01:34.261Z,103597.25
2023-02-08T00:04:00.651Z,103599.88
2023-02-08T00:06:27.115Z,103601.66
2023-02-08T00:08:53.410Z,103598.13
2023-02-08T00:11:19.754Z,103591.22
2023-02-08T00:13:46.436Z,103597.31
2023-02-08T00:16:12.992Z,103593.81
2023-02-08T00:18:41.033Z,103594.69
2023-02-08T00:21:08.507Z,103593.84
2023-02-08T00:23:34.829Z,103593.84
2023-02-08T00:26:01.243Z,103592.09
2023-02-08T00:28:27.572Z,103592.97
2023-02-08T00:30:54.003Z,103593.84
2023-02-08T00:33:20.408Z,103588.66
2023-02-08T00:35:48.074Z,103589.56
2023-02-08T00:38:14.412Z,103585.28
2023-02-08T00:40:41.052Z,103594.88
2023-02-08T00:43:07.527Z,103588.81
2023-02-08T00:45:33.851Z,103581.88
2023-02-08T00:48:00.194Z,103585.44
2023-02-08T00:53:11.763Z,103584.72
2023-02-08T00:55:38.112Z,103584.72
2023-02-08T00:58:04.410Z,103583.00
2023-02-08T01:00:30.833Z,103586.47
2023-02-08T01:02:57.175Z,103589.13
2023-02-08T01:05:23.488Z,103590.88
2023-02-08T01:07:49.807Z,103583.03
2023-02-08T01:10:17.638Z,103593.47
2023-02-08T01:12:43.964Z,103584.78
2023-02-08T01:15:10.259Z,103593.53
2023-02-08T01:17:36.553Z,103585.72
2023-02-08T01:20:02.872Z,103591.81
2023-02-08T01:22:29.200Z,103595.31
2023-02-08T01:24:55.508Z,103584.06
2023-02-08T01:27:23.211Z,103579.72
2023-02-08T01:29:49.512Z,103578.84
2023-02-08T01:32:15.823Z,103573.63
2023-02-08T01:34:44.060Z,103573.63
2023-02-08T01:37:10.581Z,103570.97
2023-02-08T01:39:36.912Z,103570.97
2023-02-08T01:42:03.294Z,103560.56
2023-02-08T01:44:48.107Z,103569.25
2023-02-08T01:47:15.832Z,103572.72
2023-02-08T01:49:42.137Z,103563.16
2023-02-08T01:52:09.990Z,103564.91
2023-02-08T01:54:38.125Z,103566.63
2023-02-08T01:57:04.715Z,103563.22
2023-02-08T01:59:34.086Z,103564.09
2023-02-08T02:02:01.009Z,103567.56
2023-02-08T02:04:28.773Z,103572.81
2023-02-08T02:09:43.875Z,103577.16
2023-02-08T02:12:10.330Z,103583.28
2023-02-08T02:14:37.631Z,103573.75
2023-02-08T02:17:04.375Z,103578.13
2023-02-08T02:22:33.632Z,103570.38
2023-02-08T02:25:30.633Z,103570.38
2023-02-08T02:28:08.134Z,103570.38
2023-02-08T02:30:52.953Z,103562.56
2023-02-08T02:33:35.148Z,103562.56
2023-02-08T02:36:03.376Z,103566.00
2023-02-08T02:38:34.165Z,103570.31
2023-02-08T02:41:04.774Z,103562.50
2023-02-08T02:43:34.021Z,103565.97
2023-02-08T02:46:04.662Z,103562.50
2023-02-08T02:48:38.513Z,103570.31
2023-02-08T02:51:08.440Z,103558.19
2023-02-08T02:53:40.767Z,103557.34
2023-02-08T02:56:11.367Z,103559.97
2023-02-08T02:58:38.685Z,103564.28
2023-02-08T03:01:05.106Z,103566.91
2023-02-08T03:03:33.810Z,103566.91
2023-02-08T03:06:02.755Z,103566.94
2023-02-08T03:08:38.864Z,103565.19
2023-02-08T03:11:14.537Z,103560.91
2023-02-08T03:13:48.142Z,103571.31
2023-02-08T03:16:17.484Z,103574.81
2023-02-08T03:18:50.599Z,103566.13
2023-02-08T03:21:18.872Z,103566.19
2023-02-08T03:23:48.204Z,103567.06
2023-02-08T03:26:19.215Z,103565.31
2023-02-08T03:28:48.860Z,103569.63
2023-02-08T03:31:19.164Z,103567.03
2023-02-08T03:33:49.783Z,103560.09
2023-02-08T03:36:20.843Z,103560.97
2023-02-08T03:41:34.147Z,103564.44
2023-02-08T03:44:02.632Z,103560.09
2023-02-08T03:46:30.728Z,103555.75
2023-02-08T03:48:59.483Z,103562.69
2023-02-08T03:51:27.984Z,103565.28
2023-02-08T03:53:56.515Z,103566.16
2023-02-08T03:56:26.054Z,103570.50
2023-02-08T03:58:56.258Z,103566.19
2023-02-08T04:01:25.077Z,103564.47
2023-02-08T04:03:52.813Z,103569.66
2023-02-08T04:06:21.098Z,103569.66
2023-02-08T04:08:47.415Z,103567.94
2023-02-08T04:11:13.763Z,103563.63
2023-02-08T04:13:40.099Z,103567.06
2023-02-08T04:16:06.811Z,103573.13
2023-02-08T04:18:33.201Z,103570.56
2023-02-08T04:20:59.522Z,103565.34
2023-02-08T04:23:27.209Z,103570.53
2023-02-08T04:25:53.541Z,103573.13
2023-02-08T04:28:19.900Z,103567.09
2023-02-08T04:30:46.315Z,103567.94
2023-02-08T04:33:12.652Z,103564.47
2023-02-08T04:38:22.887Z,103567.94
2023-02-08T04:40:50.521Z,103566.19
2023-02-08T04:43:16.860Z,103568.81
2023-02-08T04:45:43.158Z,103566.19
2023-02-08T04:48:11.707Z,103567.91
2023-02-08T04:50:38.408Z,103562.72
2023-02-08T04:53:04.817Z,103564.47
2023-02-08T04:55:31.243Z,103559.28
2023-02-08T04:57:59.069Z,103564.47
2023-02-08T05:00:25.388Z,103564.47
2023-02-08T05:02:52.570Z,103567.06
2023-02-08T05:05:18.891Z,103559.25
2023-02-08T05:07:45.257Z,103558.41
2023-02-08T05:10:11.625Z,103557.53
2023-02-08T05:12:37.920Z,103569.66
2023-02-08T05:15:05.858Z,103563.59
2023-02-08T05:17:32.171Z,103569.66
2023-02-08T05:19:58.515Z,103560.13
2023-02-08T05:22:24.838Z,103557.53
2023-02-08T05:24:51.155Z,103574.00
2023-02-08T05:27:17.482Z,103562.72
2023-02-08T05:29:43.777Z,103564.47
2023-02-08T05:32:11.456Z,103572.28
2023-02-08T05:34:37.829Z,103567.06
2023-02-08T05:39:47.972Z,103566.19
2023-02-08T05:42:14.327Z,103557.56
2023-02-08T05:44:40.600Z,103556.69
2023-02-08T05:47:06.975Z,103555.81
2023-02-08T05:49:34.662Z,103552.38
2023-02-08T05:52:00.969Z,103559.28
2023-02-08T05:54:27.276Z,103564.47
2023-02-08T05:56:53.599Z,103559.28
2023-02-08T05:59:19.921Z,103562.75
2023-02-08T06:01:46.226Z,103564.47
2023-02-08T06:04:12.628Z,103574.84
2023-02-08T06:06:40.295Z,103567.06
2023-02-08T06:09:06.578Z,103566.19
2023-02-08T06:11:32.890Z,103574.84
2023-02-08T06:13:59.189Z,103564.47
2023-02-08T06:16:25.567Z,103568.81
2023-02-08T06:18:51.922Z,103576.63
2023-02-08T06:21:18.189Z,103571.41
2023-02-08T06:23:45.866Z,103567.06
2023-02-08T06:26:12.269Z,103564.47
2023-02-08T06:28:38.664Z,103567.06
2023-02-08T06:31:05.133Z,103564.50
2023-02-08T06:33:31.446Z,103561.00
2023-02-08T06:35:57.760Z,103551.47
2023-02-08T06:38:24.097Z,103552.34
2023-02-08T06:40:51.753Z,103551.47
2023-02-08T06:43:18.064Z,103548.88
2023-02-08T06:45:44.844Z,103546.28
2023-02-08T06:48:11.236Z,103546.25
2023-02-08T06:50:37.576Z,103549.72
2023-02-08T06:53:03.978Z,103551.44
2023-02-08T06:55:32.635Z,103552.34
2023-02-08T06:58:00.300Z,103553.19
2023-02-08T07:00:26.620Z,103537.59
2023-02-08T07:02:52.925Z,103546.25
2023-02-08T07:05:19.238Z,103547.13
2023-02-08T07:07:45.527Z,103541.06
2023-02-08T07:10:11.852Z,103543.63
2023-02-08T07:12:38.158Z,103543.66
2023-02-08T07:15:06.104Z,103536.72
2023-02-08T07:17:32.505Z,103540.19
2023-02-08T07:19:58.808Z,103538.41
2023-02-08T07:22:25.137Z,103543.63
2023-02-08T07:24:51.456Z,103539.28
2023-02-08T07:27:17.762Z,103536.66
2023-02-08T07:29:44.055Z,103541.00
2023-02-08T07:32:11.804Z,103539.25
2023-02-08T07:34:38.392Z,103544.44
2023-02-08T07:37:04.721Z,103547.91
2023-02-08T07:39:31.106Z,103543.56
2023-02-08T07:41:57.436Z,103541.78
2023-02-08T07:44:23.747Z,103545.25
2023-02-08T07:46:50.295Z,103541.78
2023-02-08T07:49:17.929Z,103546.94
2023-02-08T07:51:44.253Z,103549.56
2023-02-08T07:54:10.571Z,103559.09
2023-02-08T07:56:36.870Z,103546.03
2023-02-08T07:59:03.308Z,103551.19
2023-02-08T08:01:29.690Z,103546.84
2023-02-08T08:03:56.132Z,103550.25
2023-02-08T08:06:23.893Z,103546.78
2023-02-08T08:08:50.639Z,103545.84
2023-02-08T08:11:17.794Z,103546.66
2023-02-08T08:13:44.231Z,103551.00
2023-02-08T08:16:10.870Z,103548.31
2023-02-08T08:18:37.266Z,103549.19
2023-02-08T08:21:04.162Z,103542.19
2023-02-08T08:23:31.847Z,103541.28
2023-02-08T08:25:58.294Z,103543.81
2023-02-08T08:28:24.794Z,103535.06
2023-02-08T08:30:51.233Z,103535.00
2023-02-08T08:33:17.591Z,103534.06
2023-02-08T08:35:43.898Z,103528.75
2023-02-08T08:38:10.418Z,103518.25
2023-02-08T08:40:38.317Z,103525.16
2023-02-08T08:43:04.756Z,103515.50
2023-02-08T08:45:31.123Z,103523.22
2023-02-08T08:47:57.481Z,103520.59
2023-02-08T08:50:23.772Z,103522.25
2023-02-08T08:52:50.079Z,103515.22
2023-02-08T08:55:16.390Z,103519.50
2023-02-08T08:57:44.078Z,103527.16
2023-02-08T09:00:11.247Z,103531.41
2023-02-08T09:02:37.572Z,103527.81
2023-02-08T09:05:04.379Z,103525.97
2023-02-08T09:07:30.818Z,103522.31
2023-02-08T09:09:57.203Z,103522.16
2023-02-08T09:12:23.553Z,103514.22
2023-02-08T09:17:34.971Z,103508.72
2023-02-08T09:20:02.766Z,103510.38
2023-02-08T09:22:30.465Z,103505.91
2023-02-08T09:24:56.791Z,103519.78
2023-02-08T09:27:23.090Z,103519.69
2023-02-08T09:29:50.743Z,103521.41
2023-02-08T09:32:17.098Z,103518.72
2023-02-08T09:34:43.454Z,103521.22
2023-02-08T09:37:09.771Z,103515.81
2023-02-08T09:39:36.131Z,103518.25
2023-02-08T09:42:12.807Z,103521.66
2023-02-08T09:44:44.771Z,103523.22
2023-02-08T09:47:18.452Z,103521.28
2023-02-08T09:49:58.286Z,103531.56
2023-02-08T09:52:27.485Z,103540.97
2023-02-08T09:54:57.020Z,103539.91
2023-02-08T09:57:26.319Z,103539.66
2023-02-08T09:59:55.067Z,103536.81
2023-02-08T10:02:25.280Z,103545.31
2023-02-08T10:04:55.494Z,103544.22
2023-02-08T10:07:21.827Z,103537.88
2023-02-08T10:09:48.224Z,103542.84
2023-02-08T10:12:18.503Z,103532.25
2023-02-08T10:14:55.622Z,103536.41
2023-02-08T10:17:32.173Z,103537.97
2023-02-08T10:20:02.887Z,103538.53
2023-02-08T10:22:34.743Z,103539.22
2023-02-08T10:25:15.120Z,103542.41
2023-02-08T10:27:46.782Z,103544.78
2023-02-08T10:30:19.235Z,103547.94
2023-02-08T10:32:54.354Z,103544.22
2023-02-08T10:35:24.182Z,103546.56
2023-02-08T10:37:50.617Z,103545.50
2023-02-08T10:40:26.468Z,103540.06
2023-02-08T10:42:55.602Z,103536.47
2023-02-08T10:45:24.997Z,103530.13
2023-02-08T10:47:55.179Z,103528.81
2023-02-08T10:50:25.740Z,103529.34
2023-02-08T10:52:52.527Z,103529.19
2023-02-08T10:55:21.266Z,103535.16
2023-02-08T10:57:48.340Z,103526.19
2023-02-08T11:00:18.676Z,103527.53
2023-02-08T11:02:44.979Z,103521.91
2023-02-08T11:05:17.016Z,103524.94
2023-02-08T11:07:43.337Z,103520.25
2023-02-08T11:10:14.046Z,103525.38
2023-02-08T11:12:40.853Z,103525.13
2023-02-08T11:15:21.024Z,103515.38
2023-02-08T11:17:47.387Z,103520.38
2023-02-08T11:20:22.119Z,103516.72
2023-02-08T11:22:48.652Z,103505.09
2023-02-08T11:25:30.522Z,103501.41
2023-02-08T11:27:56.872Z,103495.97
2023-02-08T11:30:23.861Z,103496.97
2023-02-08T11:33:10.247Z,103486.22
2023-02-08T11:35:37.977Z,103479.22
2023-02-08T11:38:04.441Z,103480.31
2023-02-08T11:40:34.158Z,103474.19
2023-02-08T11:43:00.587Z,103467.19
2023-02-08T11:45:28.923Z,103463.84
2023-02-08T11:47:55.298Z,103460.34
2023-02-08T11:50:24.190Z,103461.13
2023-02-08T11:52:55.366Z,103460.50
2023-02-08T11:55:23.846Z,103454.94
2023-02-08T11:57:53.960Z,103447.75
2023-02-08T12:00:21.448Z,103436.25
2023-02-08T12:02:49.765Z,103447.66
2023-02-08T12:05:17.728Z,103438.88
2023-02-08T12:07:54.535Z,103438.75
2023-02-08T12:10:35.484Z,103434.00
2023-02-08T12:13:19.829Z,103432.91
2023-02-08T12:15:58.725Z,103422.28
2023-02-08T12:18:35.780Z,103424.50
2023-02-08T12:21:05.593Z,103418.13
2023-02-08T12:23:39.090Z,103418.94
2023-02-08T12:26:12.399Z,103415.31
2023-02-08T12:28:45.969Z,103410.84
2023-02-08T12:31:16.592Z,103409.63
2023-02-08T12:33:49.180Z,103411.97
2023-02-08T12:36:31.520Z,103411.63
2023-02-08T12:39:17.070Z,103413.22
2023-02-08T12:41:52.272Z,103409.44
2023-02-08T12:44:24.389Z,103399.41
2023-02-08T12:46:56.447Z,103385.72
2023-02-08T12:49:30.887Z,103388.97
2023-02-08T12:52:03.063Z,103390.34
2023-02-08T12:54:33.319Z,103383.19
2023-02-08T12:57:02.799Z,103381.00
2023-02-08T12:59:33.058Z,103372.03
2023-02-08T13:02:02.219Z,103372.63
2023-02-08T13:07:19.229Z,103351.13
2023-02-08T13:09:48.459Z,103347.84
2023-02-08T13:12:18.562Z,103341.84
2023-02-08T13:14:46.084Z,103345.31
2023-02-08T13:17:15.613Z,103333.44
2023-02-08T13:19:59.097Z,103333.41
2023-02-08T13:22:26.696Z,103323.88
2023-02-08T13:25:06.465Z,103323.19
2023-02-08T13:27:35.518Z,103312.13
2023-02-08T13:30:02.418Z,103305.94
2023-02-08T13:32:30.935Z,103299.88
2023-02-08T13:35:01.743Z,103300.09
2023-02-08T13:37:31.254Z,103289.66
2023-02-08T13:40:00.286Z,103292.53
2023-02-08T13:42:28.998Z,103290.88
2023-02-08T13:44:58.003Z,103287.44
2023-02-08T13:47:26.349Z,103282.28
2023-02-08T13:49:54.335Z,103283.41
2023-02-08T13:52:48.255Z,103282.56
2023-02-08T13:55:29.984Z,103277.34
2023-02-08T13:57:57.554Z,103274.66
2023-02-08T14:00:26.521Z,103274.59
2023-02-08T14:02:59.450Z,103276.94
2023-02-08T14:05:43.231Z,103268.00
2023-02-08T14:08:16.883Z,103266.56
2023-02-08T14:10:48.756Z,103252.63
2023-02-08T14:13:21.568Z,103261.59
2023-02-08T14:16:09.218Z,103249.47
2023-02-08T14:18:37.171Z,103254.81
2023-02-08T14:21:04.640Z,103259.34
2023-02-08T14:23:32.520Z,103262.09
2023-02-08T14:26:02.691Z,103257.75
2023-02-08T14:28:30.561Z,103249.94
2023-02-08T14:30:58.748Z,103250.84
2023-02-08T14:33:26.385Z,103254.47
2023-02-08T14:35:56.477Z,103245.69
2023-02-08T14:38:34.486Z,103237.09
2023-02-08T14:41:01.807Z,103238.88
2023-02-08T14:43:30.267Z,103231.78
2023-02-08T14:45:57.057Z,103229.88
2023-02-08T14:48:24.209Z,103225.66
2023-02-08T14:50:52.289Z,103223.06
2023-02-08T14:53:26.702Z,103220.53
2023-02-08T14:55:56.269Z,103213.53
2023-02-08T14:58:27.382Z,103217.03
2023-02-08T15:00:55.000Z,103213.53
2023-02-08T15:03:21.992Z,103220.72
2023-02-08T15:06:00.970Z,103211.19
2023-02-08T15:08:28.622Z,103211.88
2023-02-08T15:10:55.368Z,103206.50
2023-02-08T15:13:22.626Z,103205.88
2023-02-08T15:15:52.320Z,103199.34
2023-02-08T15:21:04.449Z,103201.34
2023-02-08T15:23:32.362Z,103201.63
2023-02-08T15:25:59.682Z,103198.81
2023-02-08T15:28:27.157Z,103206.06
2023-02-08T15:30:56.790Z,103204.78
2023-02-08T15:33:23.208Z,103200.22
2023-02-08T15:35:55.736Z,103202.50
2023-02-08T15:38:23.053Z,103191.28
2023-02-08T15:41:01.092Z,103192.91
2023-02-08T15:43:27.430Z,103179.44
2023-02-08T15:45:56.415Z,103173.25
2023-02-08T15:48:23.006Z,103182.69
2023-02-08T15:50:49.757Z,103171.38
2023-02-08T15:53:16.395Z,103178.28
2023-02-08T15:55:46.713Z,103171.47
2023-02-08T15:58:20.542Z,103176.59
2023-02-08T16:00:47.221Z,103173.56
2023-02-08T16:03:17.891Z,103169.84
2023-02-08T16:05:48.754Z,103163.38
2023-02-08T16:08:20.853Z,103164.69
2023-02-08T16:10:48.750Z,103154.81
2023-02-08T16:13:17.911Z,103156.06
2023-02-08T16:15:47.163Z,103145.44
2023-02-08T16:21:27.072Z,103144.63
2023-02-08T16:23:54.745Z,103145.13
2023-02-08T16:26:23.918Z,103140.09
2023-02-08T16:28:55.732Z,103136.50
2023-02-08T16:31:24.357Z,103136.22
2023-02-08T16:33:57.360Z,103142.25
2023-02-08T16:36:28.034Z,103137.50
2023-02-08T16:39:20.162Z,103140.72
2023-02-08T16:42:13.995Z,103133.34
2023-02-08T16:44:56.632Z,103133.72
2023-02-08T16:47:27.886Z,103123.50
2023-02-08T16:49:54.212Z,103128.09
2023-02-08T16:52:20.636Z,103132.78
2023-02-08T16:54:47.002Z,103125.09
2023-02-08T16:57:13.311Z,103123.59
2023-02-08T16:59:39.640Z,103120.16
2023-02-08T17:02:09.519Z,103113.38
2023-02-08T17:04:37.281Z,103116.19
2023-02-08T17:07:03.662Z,103120.75
2023-02-08T17:09:30.040Z,103121.75
2023-02-08T17:11:56.401Z,103100.91
2023-02-08T17:14:22.784Z,103110.59
2023-02-08T17:16:49.204Z,103108.03
2023-02-08T17:19:16.605Z,103106.41
2023-02-08T17:21:44.947Z,103098.66
2023-02-08T17:24:11.290Z,103090.00
2023-02-08T17:26:40.660Z,103089.25
2023-02-08T17:29:07.222Z,103091.13
2023-02-08T17:31:33.663Z,103089.47
2023-02-08T17:34:00.011Z,103079.91
2023-02-08T17:36:26.350Z,103086.13
2023-02-08T17:38:53.974Z,103086.22
2023-02-08T17:41:20.769Z,103087.19
2023-02-08T17:43:49.167Z,103081.19
2023-02-08T17:46:16.891Z,103081.28
2023-02-08T17:48:43.225Z,103079.56
2023-02-08T17:51:09.829Z,103074.38
2023-02-08T17:53:36.176Z,103071.00
2023-02-08T17:56:04.061Z,103068.41
2023-02-08T17:58:30.345Z,103070.22
2023-02-08T18:00:56.735Z,103071.97
2023-02-08T18:03:23.065Z,103062.41
2023-02-08T18:05:54.823Z,103063.28
2023-02-08T18:08:21.150Z,103059.03
2023-02-08T18:10:47.480Z,103057.34
2023-02-08T18:13:15.147Z,103066.22
2023-02-08T18:15:41.702Z,103062.88
2023-02-08T18:18:08.154Z,103059.56
2023-02-08T18:20:34.461Z,103057.03
2023-02-08T18:23:00.808Z,103049.34
2023-02-08T18:25:27.234Z,103051.97
2023-02-08T18:27:53.594Z,103051.97
2023-02-08T18:30:21.427Z,103056.41
2023-02-08T18:32:47.723Z,103058.22
2023-02-08T18:35:14.067Z,103053.94
2023-02-08T18:37:40.418Z,103057.50
2023-02-08T18:40:07.813Z,103056.78
2023-02-08T18:42:36.086Z,103059.53
2023-02-08T18:45:02.876Z,103054.38
2023-02-08T18:47:30.602Z,103047.44
2023-02-08T18:49:56.956Z,103051.06
2023-02-08T18:52:23.325Z,103051.22
2023-02-08T18:54:49.768Z,103047.03
2023-02-08T18:57:16.094Z,103050.66
2023-02-08T18:59:42.498Z,103052.44
2023-02-08T19:02:15.676Z,103052.47
2023-02-08T19:04:43.370Z,103052.53
2023-02-08T19:07:09.721Z,103045.69
2023-02-08T19:09:36.028Z,103051.91
2023-02-08T19:12:02.568Z,103043.28
2023-02-08T19:14:28.880Z,103035.50
2023-02-08T19:16:55.200Z,103036.44
2023-02-08T19:19:21.782Z,103044.38
2023-02-08T19:21:49.500Z,103044.38
2023-02-08T19:24:15.822Z,103042.69
2023-02-08T19:26:42.516Z,103036.63
2023-02-08T19:29:10.998Z,103043.63
2023-02-08T19:31:37.685Z,103042.84
2023-02-08T19:34:04.635Z,103036.81
2023-02-08T19:36:31.916Z,103037.75
2023-02-08T19:38:59.987Z,103036.06
2023-02-08T19:41:27.777Z,103034.47
2023-02-08T19:43:54.107Z,103032.75
2023-02-08T19:46:21.793Z,103029.34
2023-02-08T19:48:48.110Z,103036.38
2023-02-08T19:51:14.566Z,103035.59
2023-02-08T19:53:40.882Z,103031.28
2023-02-08T19:56:09.495Z,103033.94
2023-02-08T19:58:36.013Z,103035.75
2023-02-08T20:01:05.267Z,103031.44
2023-02-08T20:03:32.633Z,103027.22
2023-02-08T20:05:58.963Z,103031.63
2023-02-08T20:08:27.157Z,103035.13
2023-02-08T20:10:54.410Z,103029.03
2023-02-08T20:13:22.504Z,103026.47
2023-02-08T20:15:49.216Z,103026.50
2023-02-08T20:18:15.987Z,103026.50
2023-02-08T20:20:43.973Z,103027.34
2023-02-08T20:23:22.033Z,103026.50
2023-02-08T20:25:48.933Z,103030.06
2023-02-08T20:28:15.291Z,103030.16
2023-02-08T20:30:43.340Z,103023.13
2023-02-08T20:33:09.669Z,103021.41
2023-02-08T20:35:36.207Z,103026.63
2023-02-08T20:38:02.513Z,103026.63
2023-02-08T20:40:28.901Z,103024.91
2023-02-08T20:42:55.226Z,103031.88
2023-02-08T20:45:21.566Z,103019.75
2023-02-08T20:47:49.263Z,103023.28
2023-02-08T20:50:19.604Z,103020.72
2023-02-08T20:52:46.876Z,103029.53
2023-02-08T20:55:13.290Z,103026.16
2023-02-08T20:57:39.591Z,103032.34
2023-02-08T21:00:06.382Z,103045.50
2023-02-08T21:02:32.953Z,103044.69
2023-02-08T21:05:00.660Z,103050.84
2023-02-08T21:07:26.975Z,103040.41
2023-02-08T21:09:53.283Z,103036.19
2023-02-08T21:12:19.623Z,103039.69
2023-02-08T21:14:46.042Z,103032.78
2023-02-08T21:17:12.332Z,103029.38
2023-02-08T21:19:38.661Z,103033.84
2023-02-08T21:22:06.333Z,103032.16
2023-02-08T21:24:33.023Z,103037.41
2023-02-08T21:26:59.459Z,103031.31
2023-02-08T21:29:25.884Z,103029.63
2023-02-08T21:31:52.421Z,103032.38
2023-02-08T21:34:19.625Z,103026.31
2023-02-08T21:36:46.303Z,103030.69
2023-02-08T21:39:14.062Z,103017.66
2023-02-08T21:41:40.372Z,103021.13
2023-02-08T21:44:06.726Z,103014.28
2023-02-08T21:46:33.136Z,103016.97
2023-02-08T21:49:00.121Z,103020.38
2023-02-08T21:51:26.447Z,103010.94
2023-02-08T21:53:52.747Z,103014.72
2023-02-08T21:56:20.403Z,103008.66
2023-02-08T21:58:46.745Z,103006.94
2023-02-08T22:01:13.187Z,103003.53
2023-02-08T22:03:39.537Z,103010.56
2023-02-08T22:06:06.163Z,103015.00
2023-02-08T22:08:32.475Z,103011.66
2023-02-08T22:10:58.906Z,103013.44
2023-02-08T22:13:26.679Z,103013.47
2023-02-08T22:15:53.087Z,103020.47
2023-02-08T22:18:19.445Z,103005.72
2023-02-08T22:20:46.094Z,103008.41
2023-02-08T22:23:12.606Z,103014.53
2023-02-08T22:25:39.017Z,103012.81
2023-02-08T22:28:05.604Z,102999.78
2023-02-08T22:30:33.270Z,103000.72
2023-02-08T22:32:59.579Z,102995.53
2023-02-08T22:35:26.066Z,102995.63
2023-02-08T22:37:52.440Z,102993.94
2023-02-08T22:40:19.303Z,102998.28
2023-02-08T22:42:45.658Z,102993.97
2023-02-08T22:45:12.129Z,102990.56
2023-02-08T22:47:39.809Z,102992.44
2023-02-08T22:50:07.014Z,102993.31
2023-02-08T22:52:33.318Z,102995.09
2023-02-08T22:54:59.752Z,102988.25
2023-02-08T22:57:26.085Z,103002.25
2023-02-08T22:59:52.573Z,102998.81
2023-02-08T23:02:18.903Z,103005.09
2023-02-08T23:04:46.619Z,103011.34
2023-02-08T23:07:12.952Z,103000.91
2023-02-08T23:09:39.318Z,103009.66
2023-02-08T23:12:05.854Z,103004.44
2023-02-08T23:14:32.171Z,103007.06
2023-02-08T23:16:58.512Z,103002.72
2023-02-08T23:19:25.138Z,103003.63
2023-02-08T23:21:52.786Z,103004.47
2023-02-08T23:24:19.115Z,102999.28
2023-02-08T23:26:45.449Z,102997.53
2023-02-08T23:29:11.745Z,103002.78
2023-02-08T23:31:39.206Z,103006.34
2023-02-08T23:34:05.525Z,103002.91
2023-02-08T23:36:31.968Z,102991.66
2023-02-08T23:39:00.339Z,102994.25
2023-02-08T23:41:26.631Z,102992.53
2023-02-08T23:43:53.055Z,102980.41
2023-02-08T23:46:20.432Z,102977.88
2023-02-08T23:48:46.773Z,102987.44
2023-02-08T23:51:13.457Z,102970.06
2023-02-08T23:53:39.795Z,102970.09
2023-02-08T23:56:13.028Z,102975.34
2023-02-08T23:58:39.358Z,102965.81
